createdAt,value
2017-11-22T00:00:54.560Z,24.43
2017-11-22T00:03:21.990Z,8.80
2017-11-22T00:05:49.413Z,10.97
2017-11-22T00:08:17.509Z,9.60
2017-11-22T00:10:44.924Z,9.83
2017-11-22T00:13:12.740Z,12.37
2017-11-22T00:18:14.148Z,18.00
2017-11-22T00:20:41.985Z,18.40
2017-11-22T00:23:09.402Z,21.40
2017-11-22T00:25:36.825Z,22.67
2017-11-22T00:28:04.671Z,26.63
2017-11-22T00:30:32.088Z,34.83
2017-11-22T00:32:59.514Z,38.97
2017-11-22T00:35:27.004Z,41.83
2017-11-22T00:37:54.434Z,41.50
2017-11-22T00:40:21.851Z,41.73
2017-11-22T00:42:49.293Z,48.50
2017-11-22T00:45:16.713Z,50.13
2017-11-22T00:47:44.139Z,62.40
2017-11-22T00:50:11.596Z,63.97
2017-11-22T00:52:39.018Z,91.17
2017-11-22T00:55:06.437Z,90.80
2017-11-22T00:57:34.810Z,103.10
2017-11-22T01:00:02.232Z,109.57
2017-11-22T01:02:29.659Z,153.60
2017-11-22T01:04:57.385Z,141.10
2017-11-22T01:07:24.825Z,157.47
2017-11-22T01:09:52.243Z,133.93
2017-11-22T01:12:20.095Z,136.80
2017-11-22T01:14:47.518Z,131.63
2017-11-22T01:17:14.954Z,131.00
2017-11-22T01:19:42.413Z,130.13
2017-11-22T01:22:09.837Z,129.50
2017-11-22T01:24:37.265Z,140.10
2017-11-22T01:27:04.692Z,117.60
2017-11-22T01:29:32.109Z,111.23
2017-11-22T01:31:59.552Z,111.60
2017-11-22T01:34:27.368Z,115.23
2017-11-22T01:36:54.802Z,100.17
2017-11-22T01:39:22.256Z,97.53
2017-11-22T01:41:49.666Z,90.63
2017-11-22T01:44:17.493Z,87.30
2017-11-22T01:46:44.923Z,77.60
2017-11-22T01:49:12.337Z,95.17
2017-11-22T01:51:40.181Z,95.23
2017-11-22T01:54:07.614Z,92.97
2017-11-22T01:56:35.037Z,88.77
2017-11-22T01:59:02.493Z,81.07
2017-11-22T02:01:29.918Z,75.47
2017-11-22T02:03:57.340Z,76.17
2017-11-22T02:06:25.600Z,81.70
2017-11-22T02:08:53.029Z,78.37
2017-11-22T02:11:20.453Z,70.50
2017-11-22T02:13:47.893Z,85.00
2017-11-22T02:16:15.309Z,74.10
2017-11-22T02:18:42.736Z,81.63
2017-11-22T02:21:10.579Z,78.83
2017-11-22T02:23:38.001Z,70.30
2017-11-22T02:26:05.425Z,55.13
2017-11-22T02:28:32.849Z,59.90
2017-11-22T02:31:00.671Z,53.30
2017-11-22T02:33:28.117Z,57.77
2017-11-22T02:35:55.538Z,47.73
2017-11-22T02:38:23.365Z,53.57
2017-11-22T02:40:51.809Z,52.53
2017-11-22T02:43:19.238Z,48.57
2017-11-22T02:45:46.665Z,54.10
2017-11-22T02:48:14.120Z,50.90
2017-11-22T02:50:41.535Z,49.40
2017-11-22T02:53:08.959Z,49.03
2017-11-22T02:55:36.788Z,43.43
2017-11-22T02:58:04.210Z,46.37
2017-11-22T03:00:31.629Z,42.50
2017-11-22T03:02:59.050Z,45.50
2017-11-22T03:05:26.473Z,44.30
2017-11-22T03:07:53.934Z,38.80
2017-11-22T03:10:21.349Z,41.90
2017-11-22T03:12:48.771Z,41.53
2017-11-22T03:15:16.485Z,32.57
2017-11-22T03:17:43.909Z,36.63
2017-11-22T03:20:11.730Z,37.83
2017-11-22T03:22:39.174Z,38.90
2017-11-22T03:25:06.597Z,38.80
2017-11-22T03:27:34.024Z,42.77
2017-11-22T03:30:02.022Z,34.90
2017-11-22T03:32:29.446Z,34.50
2017-11-22T03:34:57.266Z,39.00
2017-11-22T03:37:24.700Z,37.63
2017-11-22T03:39:52.128Z,35.70
2017-11-22T03:42:19.937Z,34.50
2017-11-22T03:44:47.399Z,33.70
2017-11-22T03:47:14.829Z,42.20
2017-11-22T03:49:47.852Z,37.03
2017-11-22T03:52:21.029Z,36.53
2017-11-22T03:54:48.783Z,39.60
2017-11-22T03:57:16.210Z,40.70
2017-11-22T03:59:43.634Z,41.70
2017-11-22T04:02:13.885Z,48.40
2017-11-22T04:04:41.562Z,42.17
2017-11-22T04:07:08.986Z,44.53
2017-11-22T04:09:36.805Z,45.47
2017-11-22T04:12:04.249Z,39.80
2017-11-22T04:14:31.674Z,41.00
2017-11-22T04:16:59.097Z,45.27
2017-11-22T04:19:27.723Z,42.37
2017-11-22T04:21:55.142Z,42.07
2017-11-22T04:24:22.970Z,44.00
2017-11-22T04:26:50.709Z,52.53
2017-11-22T04:29:18.130Z,41.40
2017-11-22T04:31:45.945Z,54.70
2017-11-22T04:34:13.694Z,46.17
2017-11-22T04:36:41.123Z,47.90
2017-11-22T04:39:08.543Z,51.70
2017-11-22T04:41:35.965Z,51.47
2017-11-22T04:44:03.387Z,52.47
2017-11-22T04:46:30.821Z,48.00
2017-11-22T04:48:58.244Z,50.23
2017-11-22T04:51:25.665Z,52.00
2017-11-22T04:53:53.122Z,55.77
2017-11-22T04:56:20.549Z,49.17
2017-11-22T04:58:47.983Z,56.27
2017-11-22T05:01:15.417Z,61.63
2017-11-22T05:03:42.850Z,66.07
2017-11-22T05:06:10.269Z,64.17
2017-11-22T05:08:37.957Z,56.57
2017-11-22T05:11:05.833Z,62.00
2017-11-22T05:13:33.250Z,65.67
2017-11-22T05:16:00.682Z,68.83
2017-11-22T05:18:28.098Z,62.07
2017-11-22T05:20:55.525Z,65.47
2017-11-22T05:23:22.973Z,67.23
2017-11-22T05:25:50.403Z,57.40
2017-11-22T05:28:18.222Z,67.87
2017-11-22T05:30:45.669Z,73.73
2017-11-22T05:33:13.093Z,69.37
2017-11-22T05:35:40.505Z,66.77
2017-11-22T05:38:07.941Z,74.33
2017-11-22T05:40:35.364Z,63.47
2017-11-22T05:43:02.787Z,78.07
2017-11-22T05:45:30.507Z,74.37
2017-11-22T05:47:57.924Z,70.50
2017-11-22T05:50:25.738Z,84.90
2017-11-22T05:52:53.187Z,62.40
2017-11-22T05:55:20.610Z,66.23
2017-11-22T05:57:48.038Z,64.17
2017-11-22T06:00:15.844Z,69.10
2017-11-22T06:02:43.277Z,52.87
2017-11-22T06:05:10.698Z,66.30
2017-11-22T06:07:38.357Z,60.57
2017-11-22T06:10:05.777Z,57.50
2017-11-22T06:12:33.198Z,58.43
2017-11-22T06:15:00.785Z,57.13
2017-11-22T06:17:28.210Z,55.27
2017-11-22T06:19:55.638Z,59.23
2017-11-22T06:22:23.066Z,55.80
2017-11-22T06:24:50.495Z,56.60
2017-11-22T06:27:17.920Z,41.73
2017-11-22T06:29:50.221Z,48.00
2017-11-22T06:32:17.657Z,48.50
2017-11-22T06:34:45.076Z,44.43
2017-11-22T06:37:12.515Z,52.60
2017-11-22T06:39:39.945Z,39.00
2017-11-22T06:42:07.378Z,44.40
2017-11-22T06:44:34.821Z,41.87
2017-11-22T06:47:02.251Z,37.30
2017-11-22T06:49:29.700Z,42.87
2017-11-22T06:51:57.322Z,45.97
2017-11-22T06:54:24.737Z,37.50
2017-11-22T06:56:52.561Z,40.63
2017-11-22T06:59:20.011Z,42.13
2017-11-22T07:01:53.285Z,38.57
2017-11-22T07:04:20.817Z,44.70
2017-11-22T07:06:49.582Z,41.93
2017-11-22T07:09:17.397Z,41.90
2017-11-22T07:11:44.817Z,40.30
2017-11-22T07:14:12.265Z,40.00
2017-11-22T07:16:45.499Z,29.37
2017-11-22T07:19:12.925Z,34.47
2017-11-22T07:21:40.344Z,42.50
2017-11-22T07:24:08.169Z,37.83
2017-11-22T07:26:35.874Z,46.80
2017-11-22T07:29:03.804Z,44.03
2017-11-22T07:31:31.239Z,45.50
2017-11-22T07:33:58.665Z,44.20
2017-11-22T07:36:31.857Z,42.00
2017-11-22T07:38:59.565Z,43.63
2017-11-22T07:41:27.043Z,45.07
2017-11-22T07:43:54.470Z,38.93
2017-11-22T07:46:21.893Z,42.80
2017-11-22T07:48:49.578Z,44.90
2017-11-22T07:51:22.694Z,42.43
2017-11-22T07:53:50.121Z,41.33
2017-11-22T07:56:17.556Z,44.30
2017-11-22T07:58:46.787Z,39.00
2017-11-22T08:01:14.207Z,48.90
2017-11-22T08:03:45.305Z,49.37
2017-11-22T08:06:12.726Z,48.57
2017-11-22T08:08:40.146Z,47.20
2017-11-22T08:11:07.862Z,53.63
2017-11-22T08:13:35.281Z,49.03
2017-11-22T08:16:02.714Z,44.90
2017-11-22T08:18:34.105Z,47.37
2017-11-22T08:21:01.529Z,42.23
2017-11-22T08:23:28.944Z,47.80
2017-11-22T08:25:56.808Z,44.70
2017-11-22T08:28:24.234Z,44.50
2017-11-22T08:30:51.660Z,44.00
2017-11-22T08:33:19.205Z,43.07
2017-11-22T08:35:46.632Z,53.57
2017-11-22T08:38:14.458Z,50.30
2017-11-22T08:40:42.102Z,40.30
2017-11-22T08:43:23.518Z,48.07
2017-11-22T08:45:50.949Z,45.67
2017-11-22T08:48:18.391Z,48.17
2017-11-22T08:50:45.813Z,48.60
2017-11-22T08:53:13.268Z,49.00
2017-11-22T08:55:46.345Z,51.30
2017-11-22T08:58:17.089Z,52.20
2017-11-22T09:00:44.513Z,52.00
2017-11-22T09:03:14.836Z,44.77
2017-11-22T09:05:47.919Z,43.73
2017-11-22T09:08:15.348Z,53.43
2017-11-22T09:10:42.783Z,55.47
2017-11-22T09:13:30.948Z,49.53
2017-11-22T09:15:58.365Z,51.53
2017-11-22T09:18:38.717Z,43.53
2017-11-22T09:21:09.457Z,62.57
2017-11-22T09:23:36.894Z,54.17
2017-11-22T09:26:04.730Z,49.93
2017-11-22T09:28:32.161Z,45.70
2017-11-22T09:31:05.757Z,48.50
2017-11-22T09:33:33.190Z,48.13
2017-11-22T09:36:00.622Z,54.17
2017-11-22T09:38:28.462Z,53.57
2017-11-22T09:40:55.894Z,51.57
2017-11-22T09:43:23.337Z,53.20
2017-11-22T09:45:50.804Z,56.23
2017-11-22T09:48:18.231Z,43.67
2017-11-22T09:50:45.658Z,60.97
2017-11-22T09:53:13.774Z,47.00
2017-11-22T09:55:41.199Z,53.40
2017-11-22T09:58:08.624Z,53.40
2017-11-22T10:00:36.083Z,51.50
2017-11-22T10:03:03.495Z,60.30
2017-11-22T10:05:30.921Z,60.07
2017-11-22T10:07:59.317Z,57.03
2017-11-22T10:10:26.744Z,56.00
2017-11-22T10:12:54.178Z,55.20
2017-11-22T10:15:22.018Z,53.50
2017-11-22T10:17:49.452Z,57.83
2017-11-22T10:20:19.722Z,53.77
2017-11-22T10:22:47.568Z,52.97
2017-11-22T10:25:20.065Z,59.17
2017-11-22T10:27:48.025Z,57.03
2017-11-22T10:30:15.895Z,58.37
2017-11-22T10:32:49.160Z,49.60
2017-11-22T10:35:16.599Z,56.10
2017-11-22T10:37:44.023Z,61.20
2017-11-22T10:40:11.465Z,51.00
2017-11-22T10:42:38.901Z,50.67
2017-11-22T10:45:06.734Z,60.03
2017-11-22T10:47:34.174Z,49.67
2017-11-22T10:50:01.700Z,51.00
2017-11-22T10:52:29.505Z,60.13
2017-11-22T10:54:57.765Z,45.30
2017-11-22T10:57:25.196Z,48.40
2017-11-22T10:59:52.641Z,37.40
2017-11-22T11:02:20.086Z,44.20
2017-11-22T11:04:47.908Z,38.73
2017-11-22T11:07:15.333Z,44.00
2017-11-22T11:09:42.805Z,35.23
2017-11-22T11:12:10.243Z,35.00
2017-11-22T11:14:37.669Z,37.13
2017-11-22T11:17:05.512Z,40.03
2017-11-22T11:19:32.942Z,33.93
2017-11-22T11:22:00.373Z,27.10
2017-11-22T11:24:28.041Z,28.97
2017-11-22T11:26:55.471Z,32.63
2017-11-22T11:29:22.898Z,26.23
2017-11-22T11:31:50.734Z,34.23
2017-11-22T11:34:18.160Z,31.47
2017-11-22T11:36:45.607Z,31.60
2017-11-22T11:39:13.901Z,33.77
2017-11-22T11:41:41.333Z,26.33
2017-11-22T11:44:08.767Z,33.27
2017-11-22T11:46:36.592Z,32.60
2017-11-22T11:49:04.051Z,30.93
2017-11-22T11:51:31.478Z,35.40
2017-11-22T11:53:58.915Z,28.13
2017-11-22T11:56:26.363Z,38.30
2017-11-22T11:58:53.785Z,38.43
2017-11-22T12:01:21.623Z,39.47
2017-11-22T12:03:49.069Z,38.17
2017-11-22T12:06:16.502Z,36.27
2017-11-22T12:08:43.926Z,43.00
2017-11-22T12:11:12.145Z,54.67
2017-11-22T12:13:39.697Z,45.73
2017-11-22T12:16:07.147Z,47.33
2017-11-22T12:18:34.602Z,47.53
2017-11-22T12:21:02.031Z,56.30
2017-11-22T12:23:29.866Z,51.90
2017-11-22T12:25:57.272Z,56.80
2017-11-22T12:28:24.705Z,54.90
2017-11-22T12:30:52.450Z,56.20
2017-11-22T12:33:20.273Z,55.13
2017-11-22T12:35:47.707Z,54.77
2017-11-22T12:38:15.152Z,53.90
2017-11-22T12:40:42.576Z,58.40
2017-11-22T12:43:10.409Z,61.03
2017-11-22T12:45:37.867Z,61.80
2017-11-22T12:48:05.301Z,59.77
2017-11-22T12:50:32.726Z,57.53
2017-11-22T12:53:00.173Z,61.47
2017-11-22T12:55:27.613Z,55.90
2017-11-22T12:58:00.461Z,59.07
2017-11-22T13:00:27.890Z,57.03
2017-11-22T13:02:55.322Z,58.83
2017-11-22T13:05:23.029Z,61.90
2017-11-22T13:07:50.469Z,55.03
2017-11-22T13:10:19.842Z,59.40
2017-11-22T13:12:47.276Z,59.23
2017-11-22T13:15:15.098Z,52.00
2017-11-22T13:17:42.538Z,63.53
2017-11-22T13:20:09.991Z,51.67
2017-11-22T13:22:37.413Z,50.73
2017-11-22T13:25:05.245Z,67.00
2017-11-22T13:27:32.689Z,57.60
2017-11-22T13:30:00.118Z,53.83
2017-11-22T13:32:33.360Z,56.87
2017-11-22T13:35:00.813Z,61.20
2017-11-22T13:37:28.233Z,57.90
2017-11-22T13:39:55.675Z,57.93
2017-11-22T13:42:23.130Z,56.37
2017-11-22T13:44:50.626Z,57.97
2017-11-22T13:47:18.565Z,51.50
2017-11-22T13:49:46.010Z,51.20
2017-11-22T13:52:13.450Z,55.80
2017-11-22T13:54:40.882Z,50.50
2017-11-22T13:57:08.714Z,49.97
2017-11-22T13:59:36.244Z,47.20
2017-11-22T14:02:03.675Z,47.57
2017-11-22T14:04:31.109Z,39.50
2017-11-22T14:06:58.933Z,44.03
2017-11-22T14:09:26.664Z,43.20
2017-11-22T14:11:54.125Z,42.17
2017-11-22T14:14:21.553Z,42.67
2017-11-22T14:16:48.982Z,44.60
2017-11-22T14:19:16.857Z,43.33
2017-11-22T14:21:44.677Z,38.83
2017-11-22T14:24:12.117Z,44.77
2017-11-22T14:26:39.898Z,45.63
2017-11-22T14:29:07.413Z,40.40
2017-11-22T14:31:34.842Z,39.57
2017-11-22T14:34:02.689Z,38.43
2017-11-22T14:36:30.126Z,46.23
2017-11-22T14:38:57.590Z,38.73
2017-11-22T14:43:57.114Z,42.47
2017-11-22T14:46:24.853Z,41.60
2017-11-22T14:48:52.302Z,42.33
2017-11-22T14:51:19.728Z,28.63
2017-11-22T14:53:47.167Z,33.77
2017-11-22T14:56:14.985Z,40.93
2017-11-22T14:58:42.416Z,40.70
2017-11-22T15:01:09.853Z,32.77
2017-11-22T15:03:37.673Z,37.87
2017-11-22T15:06:05.114Z,32.60
2017-11-22T15:08:32.566Z,31.37
2017-11-22T15:10:59.989Z,35.93
2017-11-22T15:13:27.423Z,36.37
2017-11-22T15:15:55.274Z,35.03
2017-11-22T15:18:22.697Z,29.33
2017-11-22T15:20:50.135Z,33.30
2017-11-22T15:23:17.581Z,33.37
2017-11-22T15:25:45.014Z,36.10
2017-11-22T15:28:12.841Z,32.30
2017-11-22T15:30:40.574Z,28.63
2017-11-22T15:33:08.005Z,33.53
2017-11-22T15:35:35.437Z,32.50
2017-11-22T15:38:03.266Z,34.73
2017-11-22T15:40:30.698Z,37.97
2017-11-22T15:42:58.142Z,34.80
2017-11-22T15:45:25.580Z,36.20
2017-11-22T15:47:53.019Z,35.17
2017-11-22T15:50:21.161Z,28.63
2017-11-22T15:52:48.597Z,29.53
2017-11-22T15:55:16.023Z,29.50
2017-11-22T15:57:43.468Z,34.37
2017-11-22T16:00:11.285Z,35.20
2017-11-22T16:02:38.726Z,29.03
2017-11-22T16:05:06.155Z,29.03
2017-11-22T16:07:33.584Z,32.33
2017-11-22T16:10:01.707Z,33.10
2017-11-22T16:12:29.129Z,34.70
2017-11-22T16:14:56.563Z,34.40
2017-11-22T16:17:24.399Z,32.83
2017-11-22T16:19:51.835Z,36.00
2017-11-22T16:24:53.929Z,29.93
2017-11-22T16:27:21.369Z,35.73
2017-11-22T16:29:48.809Z,35.03
2017-11-22T16:32:16.339Z,32.20
2017-11-22T16:34:44.164Z,34.40
2017-11-22T16:37:11.599Z,33.73
2017-11-22T16:39:39.061Z,34.03
2017-11-22T16:42:06.498Z,30.50
2017-11-22T16:44:33.929Z,34.93
2017-11-22T16:47:01.353Z,39.10
2017-11-22T16:49:28.785Z,36.63
2017-11-22T16:51:56.220Z,33.43
2017-11-22T16:54:23.676Z,35.40
2017-11-22T16:56:51.114Z,33.70
2017-11-22T16:59:18.536Z,36.70
2017-11-22T17:01:46.379Z,38.37
2017-11-22T17:04:13.822Z,34.90
2017-11-22T17:06:41.256Z,41.03
2017-11-22T17:09:08.689Z,39.50
2017-11-22T17:11:36.117Z,42.40
2017-11-22T17:14:03.542Z,38.20
2017-11-22T17:16:31.289Z,36.07
2017-11-22T17:18:58.727Z,34.83
2017-11-22T17:21:26.152Z,32.83
2017-11-22T17:23:53.976Z,36.80
2017-11-22T17:26:21.690Z,39.00
2017-11-22T17:28:49.119Z,33.80
2017-11-22T17:31:16.540Z,33.50
2017-11-22T17:33:43.980Z,33.33
2017-11-22T17:36:11.399Z,36.67
2017-11-22T17:38:39.510Z,31.20
2017-11-22T17:41:06.960Z,31.57
2017-11-22T17:43:34.367Z,29.27
2017-11-22T17:46:02.201Z,35.80
2017-11-22T17:48:29.642Z,29.83
2017-11-22T17:50:57.063Z,30.63
2017-11-22T17:53:24.518Z,31.37
2017-11-22T17:55:51.942Z,28.10
2017-11-22T17:58:19.369Z,30.73
2017-11-22T18:00:47.116Z,33.87
2017-11-22T18:03:14.545Z,26.03
2017-11-22T18:05:41.990Z,26.20
2017-11-22T18:08:09.852Z,27.30
2017-11-22T18:10:37.693Z,32.63
2017-11-22T18:13:05.105Z,31.27
2017-11-22T18:15:32.764Z,26.90
2017-11-22T18:18:01.185Z,28.50
2017-11-22T18:20:28.608Z,28.00
2017-11-22T18:22:56.053Z,27.20
2017-11-22T18:25:23.492Z,26.70
2017-11-22T18:27:50.921Z,24.73
2017-11-22T18:30:19.029Z,23.77
2017-11-22T18:32:46.458Z,25.53
2017-11-22T18:35:13.894Z,23.10
2017-11-22T18:37:41.746Z,25.10
2017-11-22T18:40:09.183Z,25.83
2017-11-22T18:42:36.634Z,21.93
2017-11-22T18:45:04.073Z,26.40
2017-11-22T18:47:31.506Z,23.13
2017-11-22T18:49:58.946Z,22.60
2017-11-22T18:52:26.380Z,23.60
2017-11-22T18:54:54.200Z,22.03
2017-11-22T18:57:21.813Z,20.07
2017-11-22T18:59:49.632Z,19.37
2017-11-22T19:02:17.055Z,20.63
2017-11-22T19:04:44.501Z,20.53
2017-11-22T19:07:11.934Z,20.83
2017-11-22T19:09:39.770Z,21.10
2017-11-22T19:12:07.210Z,21.57
2017-11-22T19:14:34.634Z,20.43
2017-11-22T19:17:02.057Z,19.90
2017-11-22T19:19:30.206Z,18.50
2017-11-22T19:21:57.651Z,19.10
2017-11-22T19:24:25.066Z,20.40
2017-11-22T19:26:52.798Z,18.80
2017-11-22T19:29:26.189Z,22.83
2017-11-22T19:31:53.681Z,17.77
2017-11-22T19:34:21.144Z,19.43
2017-11-22T19:36:48.600Z,17.60
2017-11-22T19:39:16.021Z,21.87
2017-11-22T19:41:43.873Z,21.80
2017-11-22T19:44:11.296Z,19.00
2017-11-22T19:46:38.721Z,19.70
2017-11-22T19:49:06.161Z,19.80
2017-11-22T19:51:34.026Z,20.53
2017-11-22T19:54:01.837Z,22.47
2017-11-22T19:56:29.481Z,22.70
2017-11-22T19:58:56.904Z,22.70
2017-11-22T20:01:24.325Z,23.50
2017-11-22T20:03:51.820Z,28.13
2017-11-22T20:06:19.286Z,23.13
2017-11-22T20:08:46.742Z,23.80
2017-11-22T20:11:14.229Z,22.20
2017-11-22T20:13:41.647Z,26.40
2017-11-22T20:16:09.068Z,21.10
2017-11-22T20:18:36.929Z,26.60
2017-11-22T20:21:04.343Z,23.33
2017-11-22T20:23:31.822Z,25.77
2017-11-22T20:25:59.276Z,24.70
2017-11-22T20:28:26.695Z,25.17
2017-11-22T20:30:54.162Z,23.33
2017-11-22T20:33:21.613Z,23.07
2017-11-22T20:35:49.062Z,27.63
2017-11-22T20:38:16.504Z,28.00
2017-11-22T20:40:44.281Z,21.80
2017-11-22T20:43:11.694Z,28.40
2017-11-22T20:45:39.518Z,30.07
2017-11-22T20:48:06.966Z,25.50
2017-11-22T20:50:34.392Z,25.60
2017-11-22T20:53:01.822Z,23.03
2017-11-22T20:55:29.538Z,26.63
2017-11-22T20:57:57.358Z,24.23
2017-11-22T21:00:24.773Z,27.63
2017-11-22T21:02:52.514Z,25.10
2017-11-22T21:05:19.940Z,22.00
2017-11-22T21:07:47.360Z,22.90
2017-11-22T21:10:14.823Z,23.87
2017-11-22T21:12:42.237Z,22.33
2017-11-22T21:15:09.664Z,23.67
2017-11-22T21:17:37.110Z,24.20
2017-11-22T21:20:04.533Z,22.47
2017-11-22T21:22:31.953Z,30.50
2017-11-22T21:24:59.396Z,21.97
2017-11-22T21:27:26.823Z,24.53
2017-11-22T21:29:54.650Z,20.80
2017-11-22T21:32:22.286Z,20.40
2017-11-22T21:34:49.708Z,19.23
2017-11-22T21:37:17.126Z,18.17
2017-11-22T21:39:44.742Z,18.53
2017-11-22T21:42:12.176Z,19.90
2017-11-22T21:44:39.601Z,18.97
2017-11-22T21:47:07.454Z,19.50
2017-11-22T21:49:34.877Z,17.97
2017-11-22T21:52:03.248Z,18.90
2017-11-22T21:54:30.685Z,21.13
2017-11-22T21:56:58.109Z,14.77
2017-11-22T21:59:25.946Z,17.77
2017-11-22T22:01:53.371Z,18.10
2017-11-22T22:04:20.836Z,18.00
2017-11-22T22:06:48.265Z,14.73
2017-11-22T22:09:15.689Z,18.80
2017-11-22T22:11:43.529Z,16.17
2017-11-22T22:14:10.960Z,14.40
2017-11-22T22:16:38.379Z,17.63
2017-11-22T22:19:06.692Z,13.83
2017-11-22T22:21:34.123Z,16.73
2017-11-22T22:24:01.549Z,17.87
2017-11-22T22:26:28.973Z,13.37
2017-11-22T22:28:56.400Z,15.70
2017-11-22T22:31:23.837Z,15.20
2017-11-22T22:33:51.267Z,13.27
2017-11-22T22:36:19.086Z,17.33
2017-11-22T22:38:46.514Z,13.90
2017-11-22T22:41:14.046Z,16.30
2017-11-22T22:43:41.860Z,16.40
2017-11-22T22:46:09.296Z,13.60
2017-11-22T22:48:36.733Z,13.50
2017-11-22T22:51:04.158Z,16.97
2017-11-22T22:53:31.582Z,14.43
2017-11-22T22:55:59.019Z,15.03
2017-11-22T22:58:26.451Z,15.60
2017-11-22T23:00:53.889Z,14.20
2017-11-22T23:03:21.309Z,14.23
2017-11-22T23:05:48.742Z,14.70
2017-11-22T23:08:16.165Z,16.93
2017-11-22T23:10:43.614Z,19.93
2017-11-22T23:13:11.441Z,16.83
2017-11-22T23:15:38.866Z,18.50
2017-11-22T23:18:06.321Z,14.03
2017-11-22T23:20:33.759Z,14.53
2017-11-22T23:23:01.190Z,14.53
2017-11-22T23:25:28.630Z,12.73
2017-11-22T23:27:56.047Z,14.60
2017-11-22T23:30:23.474Z,11.93
2017-11-22T23:32:51.013Z,13.63
2017-11-22T23:35:18.841Z,12.57
2017-11-22T23:37:46.260Z,14.93
2017-11-22T23:40:13.680Z,12.10
2017-11-22T23:42:41.503Z,12.27
2017-11-22T23:45:08.925Z,12.30
2017-11-22T23:47:36.711Z,11.93
2017-11-22T23:50:04.137Z,13.80
2017-11-22T23:52:31.557Z,14.67
2017-11-22T23:54:58.993Z,16.17
2017-11-22T23:57:26.423Z,14.00
2017-11-22T23:59:53.842Z,12.33
